sensor_id;sensor_type;location;lat;lon;timestamp;temperature;humidity
46752;DHT22;32497;48.936;9.270;2023-03-03T00:02:51;1.10;83.70
46752;DHT22;32497;48.936;9.270;2023-03-03T00:07:52;1.10;83.70
46752;DHT22;32497;48.936;9.270;2023-03-03T00:12:54;1.00;83.00
46752;DHT22;32497;48.936;9.270;2023-03-03T00:17:55;1.10;83.20
46752;DHT22;32497;48.936;9.270;2023-03-03T00:23:08;1.10;83.40
46752;DHT22;32497;48.936;9.270;2023-03-03T00:28:21;1.10;83.10
46752;DHT22;32497;48.936;9.270;2023-03-03T00:33:29;1.00;83.90
46752;DHT22;32497;48.936;9.270;2023-03-03T00:38:34;0.90;84.00
46752;DHT22;32497;48.936;9.270;2023-03-03T00:43:36;0.70;84.10
46752;DHT22;32497;48.936;9.270;2023-03-03T00:48:41;0.70;84.50
46752;DHT22;32497;48.936;9.270;2023-03-03T00:53:42;0.60;84.60
46752;DHT22;32497;48.936;9.270;2023-03-03T00:58:45;0.60;85.40
46752;DHT22;32497;48.936;9.270;2023-03-03T01:03:47;0.60;85.10
46752;DHT22;32497;48.936;9.270;2023-03-03T01:08:48;0.40;84.40
46752;DHT22;32497;48.936;9.270;2023-03-03T01:13:51;0.30;84.60
46752;DHT22;32497;48.936;9.270;2023-03-03T01:18:52;0.40;85.90
46752;DHT22;32497;48.936;9.270;2023-03-03T01:23:53;0.30;85.10
46752;DHT22;32497;48.936;9.270;2023-03-03T01:28:56;0.30;85.10
46752;DHT22;32497;48.936;9.270;2023-03-03T01:33:58;0.20;85.60
46752;DHT22;32497;48.936;9.270;2023-03-03T01:38:59;0.20;85.30
46752;DHT22;32497;48.936;9.270;2023-03-03T01:44:02;0.20;85.70
46752;DHT22;32497;48.936;9.270;2023-03-03T01:49:09;0.20;85.70
46752;DHT22;32497;48.936;9.270;2023-03-03T01:54:19;0.10;85.30
46752;DHT22;32497;48.936;9.270;2023-03-03T01:59:25;0.00;85.90
46752;DHT22;32497;48.936;9.270;2023-03-03T02:04:28;-3276.70;86.10
46752;DHT22;32497;48.936;9.270;2023-03-03T02:09:36;-3276.70;86.40
46752;DHT22;32497;48.936;9.270;2023-03-03T02:14:43;-3276.60;86.60
46752;DHT22;32497;48.936;9.270;2023-03-03T02:19:52;-3276.50;86.50
46752;DHT22;32497;48.936;9.270;2023-03-03T02:24:56;-3276.40;86.60
46752;DHT22;32497;48.936;9.270;2023-03-03T02:30:12;-3276.40;86.40
46752;DHT22;32497;48.936;9.270;2023-03-03T02:35:30;-3276.30;87.30
46752;DHT22;32497;48.936;9.270;2023-03-03T02:40:35;-3276.20;87.60
46752;DHT22;32497;48.936;9.270;2023-03-03T02:45:42;-3276.20;88.40
46752;DHT22;32497;48.936;9.270;2023-03-03T02:50:44;-3276.20;88.60
46752;DHT22;32497;48.936;9.270;2023-03-03T02:55:45;-3276.30;87.30
46752;DHT22;32497;48.936;9.270;2023-03-03T03:00:47;-3276.20;86.70
46752;DHT22;32497;48.936;9.270;2023-03-03T03:05:53;-3276.00;87.20
46752;DHT22;32497;48.936;9.270;2023-03-03T03:10:56;-3276.10;88.00
46752;DHT22;32497;48.936;9.270;2023-03-03T03:16:00;-3276.10;88.20
46752;DHT22;32497;48.936;9.270;2023-03-03T03:21:06;-3276.10;88.60
46752;DHT22;32497;48.936;9.270;2023-03-03T03:26:07;-3276.00;87.40
46752;DHT22;32497;48.936;9.270;2023-03-03T03:31:10;-3276.00;88.00
46752;DHT22;32497;48.936;9.270;2023-03-03T03:36:12;-3276.00;87.80
46752;DHT22;32497;48.936;9.270;2023-03-03T03:41:13;-3276.10;88.30
46752;DHT22;32497;48.936;9.270;2023-03-03T03:46:16;-3276.10;88.60
46752;DHT22;32497;48.936;9.270;2023-03-03T03:51:17;-3276.20;88.50
46752;DHT22;32497;48.936;9.270;2023-03-03T03:56:19;-3276.20;88.30
46752;DHT22;32497;48.936;9.270;2023-03-03T04:01:25;-3276.20;87.70
46752;DHT22;32497;48.936;9.270;2023-03-03T04:06:26;-3276.30;88.20
46752;DHT22;32497;48.936;9.270;2023-03-03T04:11:29;-3276.50;88.60
46752;DHT22;32497;48.936;9.270;2023-03-03T04:16:32;0.00;88.60
46752;DHT22;32497;48.936;9.270;2023-03-03T04:21:33;0.10;88.40
46752;DHT22;32497;48.936;9.270;2023-03-03T04:26:36;0.50;88.80
46752;DHT22;32497;48.936;9.270;2023-03-03T04:31:40;0.60;88.20
46752;DHT22;32497;48.936;9.270;2023-03-03T04:36:43;0.70;87.40
46752;DHT22;32497;48.936;9.270;2023-03-03T04:41:45;0.70;86.40
46752;DHT22;32497;48.936;9.270;2023-03-03T04:46:47;0.80;86.10
46752;DHT22;32497;48.936;9.270;2023-03-03T04:51:49;0.80;85.70
46752;DHT22;32497;48.936;9.270;2023-03-03T04:56:50;0.90;85.10
46752;DHT22;32497;48.936;9.270;2023-03-03T05:01:53;0.90;85.00
46752;DHT22;32497;48.936;9.270;2023-03-03T05:06:55;0.90;85.40
46752;DHT22;32497;48.936;9.270;2023-03-03T05:11:56;1.00;85.40
46752;DHT22;32497;48.936;9.270;2023-03-03T05:16:58;1.10;85.00
46752;DHT22;32497;48.936;9.270;2023-03-03T05:21:59;1.10;84.40
46752;DHT22;32497;48.936;9.270;2023-03-03T05:27:01;1.10;84.10
46752;DHT22;32497;48.936;9.270;2023-03-03T05:32:03;1.00;84.10
46752;DHT22;32497;48.936;9.270;2023-03-03T05:37:04;1.00;83.80
46752;DHT22;32497;48.936;9.270;2023-03-03T05:42:05;1.10;84.40
46752;DHT22;32497;48.936;9.270;2023-03-03T05:47:09;1.10;84.20
46752;DHT22;32497;48.936;9.270;2023-03-03T05:52:10;1.20;84.80
46752;DHT22;32497;48.936;9.270;2023-03-03T05:57:11;1.20;84.10
46752;DHT22;32497;48.936;9.270;2023-03-03T06:02:14;1.10;84.20
46752;DHT22;32497;48.936;9.270;2023-03-03T06:07:15;1.20;83.80
46752;DHT22;32497;48.936;9.270;2023-03-03T06:12:16;1.40;83.80
46752;DHT22;32497;48.936;9.270;2023-03-03T06:17:19;1.30;83.90
46752;DHT22;32497;48.936;9.270;2023-03-03T06:22:20;1.40;84.20
46752;DHT22;32497;48.936;9.270;2023-03-03T06:27:21;1.30;83.70
46752;DHT22;32497;48.936;9.270;2023-03-03T06:32:23;1.40;83.60
46752;DHT22;32497;48.936;9.270;2023-03-03T06:37:25;1.60;83.30
46752;DHT22;32497;48.936;9.270;2023-03-03T06:42:26;1.70;83.10
46752;DHT22;32497;48.936;9.270;2023-03-03T06:47:28;1.80;82.10
46752;DHT22;32497;48.936;9.270;2023-03-03T06:52:29;1.80;81.60
46752;DHT22;32497;48.936;9.270;2023-03-03T06:57:32;1.90;80.80
46752;DHT22;32497;48.936;9.270;2023-03-03T07:02:34;1.90;81.20
46752;DHT22;32497;48.936;9.270;2023-03-03T07:07:35;1.90;80.90
46752;DHT22;32497;48.936;9.270;2023-03-03T07:12:36;2.10;80.70
46752;DHT22;32497;48.936;9.270;2023-03-03T07:17:42;2.20;79.90
46752;DHT22;32497;48.936;9.270;2023-03-03T07:22:44;2.40;79.70
46752;DHT22;32497;48.936;9.270;2023-03-03T07:27:45;2.60;79.20
46752;DHT22;32497;48.936;9.270;2023-03-03T07:32:48;2.70;78.20
46752;DHT22;32497;48.936;9.270;2023-03-03T07:37:50;2.70;77.90
46752;DHT22;32497;48.936;9.270;2023-03-03T07:42:52;2.70;78.30
46752;DHT22;32497;48.936;9.270;2023-03-03T07:48:15;2.50;78.90
46752;DHT22;32497;48.936;9.270;2023-03-03T07:53:23;2.30;79.40
46752;DHT22;32497;48.936;9.270;2023-03-03T07:58:30;2.20;79.80
46752;DHT22;32497;48.936;9.270;2023-03-03T08:03:37;2.10;80.60
46752;DHT22;32497;48.936;9.270;2023-03-03T08:08:38;2.00;80.80
46752;DHT22;32497;48.936;9.270;2023-03-03T08:13:41;2.10;80.60
46752;DHT22;32497;48.936;9.270;2023-03-03T08:18:45;2.10;80.60
46752;DHT22;32497;48.936;9.270;2023-03-03T08:23:47;2.30;80.50
46752;DHT22;32497;48.936;9.270;2023-03-03T08:28:49;2.40;79.60
46752;DHT22;32497;48.936;9.270;2023-03-03T08:33:51;2.60;79.00
46752;DHT22;32497;48.936;9.270;2023-03-03T08:38:52;2.80;78.30
46752;DHT22;32497;48.936;9.270;2023-03-03T08:43:53;2.90;77.20
46752;DHT22;32497;48.936;9.270;2023-03-03T08:48:56;3.10;76.70
46752;DHT22;32497;48.936;9.270;2023-03-03T08:53:57;3.10;76.30
46752;DHT22;32497;48.936;9.270;2023-03-03T08:58:58;3.20;76.10
46752;DHT22;32497;48.936;9.270;2023-03-03T09:04:00;3.40;76.20
46752;DHT22;32497;48.936;9.270;2023-03-03T09:09:02;3.60;75.70
46752;DHT22;32497;48.936;9.270;2023-03-03T09:14:09;3.70;75.20
46752;DHT22;32497;48.936;9.270;2023-03-03T09:19:30;3.90;74.70
46752;DHT22;32497;48.936;9.270;2023-03-03T09:24:35;4.20;73.50
46752;DHT22;32497;48.936;9.270;2023-03-03T09:29:36;4.20;72.10
46752;DHT22;32497;48.936;9.270;2023-03-03T09:34:40;4.10;70.90
46752;DHT22;32497;48.936;9.270;2023-03-03T09:39:42;4.10;70.30
46752;DHT22;32497;48.936;9.270;2023-03-03T09:50:32;4.20;71.70
46752;DHT22;32497;48.936;9.270;2023-03-03T09:55:43;4.60;71.00
46752;DHT22;32497;48.936;9.270;2023-03-03T10:00:54;5.00;70.70
46752;DHT22;32497;48.936;9.270;2023-03-03T10:06:02;5.40;70.20
46752;DHT22;32497;48.936;9.270;2023-03-03T10:11:15;5.80;67.90
46752;DHT22;32497;48.936;9.270;2023-03-03T10:21:58;6.20;66.40
46752;DHT22;32497;48.936;9.270;2023-03-03T10:27:12;7.10;63.40
46752;DHT22;32497;48.936;9.270;2023-03-03T10:37:53;7.20;61.70
46752;DHT22;32497;48.936;9.270;2023-03-03T10:43:15;7.10;62.40
46752;DHT22;32497;48.936;9.270;2023-03-03T10:48:33;6.90;61.50
46752;DHT22;32497;48.936;9.270;2023-03-03T10:54:01;7.10;62.60
46752;DHT22;32497;48.936;9.270;2023-03-03T10:59:19;7.20;60.90
46752;DHT22;32497;48.936;9.270;2023-03-03T11:04:48;7.40;61.00
46752;DHT22;32497;48.936;9.270;2023-03-03T11:10:04;7.60;59.30
46752;DHT22;32497;48.936;9.270;2023-03-03T11:15:22;8.50;57.80
46752;DHT22;32497;48.936;9.270;2023-03-03T11:20:34;9.50;53.50
46752;DHT22;32497;48.936;9.270;2023-03-03T11:25:44;9.70;52.60
46752;DHT22;32497;48.936;9.270;2023-03-03T11:30:58;9.80;51.80
46752;DHT22;32497;48.936;9.270;2023-03-03T11:36:10;10.50;51.30
46752;DHT22;32497;48.936;9.270;2023-03-03T11:41:19;9.90;49.40
46752;DHT22;32497;48.936;9.270;2023-03-03T11:46:25;9.90;51.50
46752;DHT22;32497;48.936;9.270;2023-03-03T11:51:36;10.20;50.60
46752;DHT22;32497;48.936;9.270;2023-03-03T11:56:43;10.50;49.20
46752;DHT22;32497;48.936;9.270;2023-03-03T12:01:50;10.90;47.00
46752;DHT22;32497;48.936;9.270;2023-03-03T12:07:09;10.10;47.90
46752;DHT22;32497;48.936;9.270;2023-03-03T12:12:17;9.60;51.10
46752;DHT22;32497;48.936;9.270;2023-03-03T12:17:37;10.30;48.50
46752;DHT22;32497;48.936;9.270;2023-03-03T12:22:41;10.10;47.40
46752;DHT22;32497;48.936;9.270;2023-03-03T12:27:51;10.00;47.10
46752;DHT22;32497;48.936;9.270;2023-03-03T12:33:06;10.10;47.40
46752;DHT22;32497;48.936;9.270;2023-03-03T12:38:14;10.50;46.70
46752;DHT22;32497;48.936;9.270;2023-03-03T12:43:30;11.00;44.80
46752;DHT22;32497;48.936;9.270;2023-03-03T12:48:39;11.00;44.70
46752;DHT22;32497;48.936;9.270;2023-03-03T12:53:49;11.40;44.80
46752;DHT22;32497;48.936;9.270;2023-03-03T12:59:00;11.70;44.70
46752;DHT22;32497;48.936;9.270;2023-03-03T13:04:07;12.10;43.80
46752;DHT22;32497;48.936;9.270;2023-03-03T13:09:24;12.60;43.20
46752;DHT22;32497;48.936;9.270;2023-03-03T13:14:36;12.50;42.10
46752;DHT22;32497;48.936;9.270;2023-03-03T13:19:45;13.40;40.10
46752;DHT22;32497;48.936;9.270;2023-03-03T13:24:56;14.90;37.80
46752;DHT22;32497;48.936;9.270;2023-03-03T13:30:02;15.70;35.70
46752;DHT22;32497;48.936;9.270;2023-03-03T13:35:17;15.70;34.80
46752;DHT22;32497;48.936;9.270;2023-03-03T13:40:22;15.00;37.00
46752;DHT22;32497;48.936;9.270;2023-03-03T13:45:29;15.90;34.90
46752;DHT22;32497;48.936;9.270;2023-03-03T13:50:41;15.80;35.30
46752;DHT22;32497;48.936;9.270;2023-03-03T13:55:51;16.40;33.70
46752;DHT22;32497;48.936;9.270;2023-03-03T14:01:02;16.60;33.90
46752;DHT22;32497;48.936;9.270;2023-03-03T14:06:08;16.30;34.70
46752;DHT22;32497;48.936;9.270;2023-03-03T14:11:16;15.70;34.80
46752;DHT22;32497;48.936;9.270;2023-03-03T14:16:38;16.60;34.00
46752;DHT22;32497;48.936;9.270;2023-03-03T14:21:44;15.80;34.90
46752;DHT22;32497;48.936;9.270;2023-03-03T14:26:59;16.20;34.50
46752;DHT22;32497;48.936;9.270;2023-03-03T14:32:19;16.20;34.90
46752;DHT22;32497;48.936;9.270;2023-03-03T14:37:23;15.90;34.80
46752;DHT22;32497;48.936;9.270;2023-03-03T14:42:34;15.60;35.60
46752;DHT22;32497;48.936;9.270;2023-03-03T14:47:44;15.70;35.60
46752;DHT22;32497;48.936;9.270;2023-03-03T14:53:05;15.30;35.90
46752;DHT22;32497;48.936;9.270;2023-03-03T14:58:27;14.90;37.00
46752;DHT22;32497;48.936;9.270;2023-03-03T15:03:29;15.00;37.30
46752;DHT22;32497;48.936;9.270;2023-03-03T15:08:33;14.80;37.30
46752;DHT22;32497;48.936;9.270;2023-03-03T15:13:34;14.80;37.90
46752;DHT22;32497;48.936;9.270;2023-03-03T15:19:09;15.00;37.50
46752;DHT22;32497;48.936;9.270;2023-03-03T15:24:19;14.70;37.70
46752;DHT22;32497;48.936;9.270;2023-03-03T15:29:27;14.70;38.20
46752;DHT22;32497;48.936;9.270;2023-03-03T15:34:37;14.40;38.40
46752;DHT22;32497;48.936;9.270;2023-03-03T15:39:44;13.40;40.40
46752;DHT22;32497;48.936;9.270;2023-03-03T15:44:55;12.90;42.00
46752;DHT22;32497;48.936;9.270;2023-03-03T15:50:23;11.90;43.50
46752;DHT22;32497;48.936;9.270;2023-03-03T15:55:35;10.80;46.60
46752;DHT22;32497;48.936;9.270;2023-03-03T16:00:51;10.20;48.90
46752;DHT22;32497;48.936;9.270;2023-03-03T16:06:02;9.80;49.90
46752;DHT22;32497;48.936;9.270;2023-03-03T16:11:08;9.50;51.30
46752;DHT22;32497;48.936;9.270;2023-03-03T16:16:24;9.20;51.50
46752;DHT22;32497;48.936;9.270;2023-03-03T16:21:46;9.00;53.30
46752;DHT22;32497;48.936;9.270;2023-03-03T16:26:53;8.80;53.50
46752;DHT22;32497;48.936;9.270;2023-03-03T16:32:01;8.60;54.20
46752;DHT22;32497;48.936;9.270;2023-03-03T16:37:13;8.50;54.60
46752;DHT22;32497;48.936;9.270;2023-03-03T16:42:23;8.40;55.30
46752;DHT22;32497;48.936;9.270;2023-03-03T16:47:41;8.20;56.10
46752;DHT22;32497;48.936;9.270;2023-03-03T16:52:48;8.00;56.90
46752;DHT22;32497;48.936;9.270;2023-03-03T16:58:02;7.90;57.50
46752;DHT22;32497;48.936;9.270;2023-03-03T17:03:33;7.60;58.30
46752;DHT22;32497;48.936;9.270;2023-03-03T17:08:54;7.30;59.30
46752;DHT22;32497;48.936;9.270;2023-03-03T17:14:13;7.10;60.20
46752;DHT22;32497;48.936;9.270;2023-03-03T17:19:28;6.90;60.70
46752;DHT22;32497;48.936;9.270;2023-03-03T17:24:43;6.70;61.50
46752;DHT22;32497;48.936;9.270;2023-03-03T17:29:56;6.60;62.10
46752;DHT22;32497;48.936;9.270;2023-03-03T17:35:27;6.50;62.40
46752;DHT22;32497;48.936;9.270;2023-03-03T17:40:44;6.30;63.20
46752;DHT22;32497;48.936;9.270;2023-03-03T17:45:50;6.10;63.90
46752;DHT22;32497;48.936;9.270;2023-03-03T17:51:05;5.90;64.50
46752;DHT22;32497;48.936;9.270;2023-03-03T17:56:18;5.80;65.10
46752;DHT22;32497;48.936;9.270;2023-03-03T18:01:29;5.60;65.50
46752;DHT22;32497;48.936;9.270;2023-03-03T18:12:23;5.40;66.20
46752;DHT22;32497;48.936;9.270;2023-03-03T18:23:32;5.20;67.20
46752;DHT22;32497;48.936;9.270;2023-03-03T18:28:46;5.20;67.30
46752;DHT22;32497;48.936;9.270;2023-03-03T18:34:02;5.30;67.10
46752;DHT22;32497;48.936;9.270;2023-03-03T18:39:12;5.30;66.90
46752;DHT22;32497;48.936;9.270;2023-03-03T18:44:32;5.30;66.90
46752;DHT22;32497;48.936;9.270;2023-03-03T18:49:56;5.20;67.00
46752;DHT22;32497;48.936;9.270;2023-03-03T18:55:22;5.10;67.50
46752;DHT22;32497;48.936;9.270;2023-03-03T19:00:29;4.80;68.60
46752;DHT22;32497;48.936;9.270;2023-03-03T19:05:36;4.50;70.30
46752;DHT22;32497;48.936;9.270;2023-03-03T19:10:52;4.50;70.20
46752;DHT22;32497;48.936;9.270;2023-03-03T19:15:57;4.40;70.60
46752;DHT22;32497;48.936;9.270;2023-03-03T19:21:00;4.50;70.60
46752;DHT22;32497;48.936;9.270;2023-03-03T19:26:25;4.40;70.70
46752;DHT22;32497;48.936;9.270;2023-03-03T19:31:34;4.30;71.40
46752;DHT22;32497;48.936;9.270;2023-03-03T19:36:49;4.30;71.50
46752;DHT22;32497;48.936;9.270;2023-03-03T19:42:02;4.30;71.90
46752;DHT22;32497;48.936;9.270;2023-03-03T19:47:12;4.20;72.10
46752;DHT22;32497;48.936;9.270;2023-03-03T19:52:21;4.20;72.20
46752;DHT22;32497;48.936;9.270;2023-03-03T19:57:35;3.90;73.00
46752;DHT22;32497;48.936;9.270;2023-03-03T20:02:51;3.80;73.30
46752;DHT22;32497;48.936;9.270;2023-03-03T20:08:00;3.70;73.80
46752;DHT22;32497;48.936;9.270;2023-03-03T20:13:08;3.50;74.50
46752;DHT22;32497;48.936;9.270;2023-03-03T20:18:32;3.40;75.00
46752;DHT22;32497;48.936;9.270;2023-03-03T20:23:44;3.20;75.40
46752;DHT22;32497;48.936;9.270;2023-03-03T20:29:11;3.10;75.90
46752;DHT22;32497;48.936;9.270;2023-03-03T20:34:25;2.90;77.10
46752;DHT22;32497;48.936;9.270;2023-03-03T20:39:39;2.80;77.30
46752;DHT22;32497;48.936;9.270;2023-03-03T20:44:52;2.60;77.90
46752;DHT22;32497;48.936;9.270;2023-03-03T20:50:12;2.60;78.50
46752;DHT22;32497;48.936;9.270;2023-03-03T20:55:23;2.70;78.40
46752;DHT22;32497;48.936;9.270;2023-03-03T21:00:33;2.60;78.40
46752;DHT22;32497;48.936;9.270;2023-03-03T21:05:55;2.60;78.50
46752;DHT22;32497;48.936;9.270;2023-03-03T21:10:56;2.40;79.20
46752;DHT22;32497;48.936;9.270;2023-03-03T21:16:00;2.40;79.60
46752;DHT22;32497;48.936;9.270;2023-03-03T21:21:04;2.40;79.50
46752;DHT22;32497;48.936;9.270;2023-03-03T21:26:05;2.40;79.60
46752;DHT22;32497;48.936;9.270;2023-03-03T21:31:11;2.30;79.90
46752;DHT22;32497;48.936;9.270;2023-03-03T21:36:16;2.40;79.70
46752;DHT22;32497;48.936;9.270;2023-03-03T21:41:18;2.30;79.90
46752;DHT22;32497;48.936;9.270;2023-03-03T21:46:20;2.20;79.60
46752;DHT22;32497;48.936;9.270;2023-03-03T21:51:23;2.10;80.10
46752;DHT22;32497;48.936;9.270;2023-03-03T21:56:24;1.90;80.50
46752;DHT22;32497;48.936;9.270;2023-03-03T22:01:25;1.90;80.50
46752;DHT22;32497;48.936;9.270;2023-03-03T22:06:27;1.80;80.80
46752;DHT22;32497;48.936;9.270;2023-03-03T22:11:28;1.70;81.30
46752;DHT22;32497;48.936;9.270;2023-03-03T22:16:29;1.60;81.20
46752;DHT22;32497;48.936;9.270;2023-03-03T22:21:32;1.50;81.50
46752;DHT22;32497;48.936;9.270;2023-03-03T22:26:33;1.40;82.00
46752;DHT22;32497;48.936;9.270;2023-03-03T22:31:35;1.40;81.80
46752;DHT22;32497;48.936;9.270;2023-03-03T22:36:38;1.30;82.20
46752;DHT22;32497;48.936;9.270;2023-03-03T22:41:39;1.30;82.40
46752;DHT22;32497;48.936;9.270;2023-03-03T22:46:40;1.40;82.10
46752;DHT22;32497;48.936;9.270;2023-03-03T22:51:42;1.20;82.30
46752;DHT22;32497;48.936;9.270;2023-03-03T22:56:43;1.10;82.80
46752;DHT22;32497;48.936;9.270;2023-03-03T23:01:44;1.10;82.80
46752;DHT22;32497;48.936;9.270;2023-03-03T23:06:47;1.00;83.00
46752;DHT22;32497;48.936;9.270;2023-03-03T23:11:48;0.90;83.00
46752;DHT22;32497;48.936;9.270;2023-03-03T23:16:49;0.80;83.40
46752;DHT22;32497;48.936;9.270;2023-03-03T23:21:51;0.70;83.70
46752;DHT22;32497;48.936;9.270;2023-03-03T23:26:52;0.70;83.70
46752;DHT22;32497;48.936;9.270;2023-03-03T23:31:54;0.60;83.60
46752;DHT22;32497;48.936;9.270;2023-03-03T23:36:56;0.50;83.80
46752;DHT22;32497;48.936;9.270;2023-03-03T23:41:57;0.40;84.80
46752;DHT22;32497;48.936;9.270;2023-03-03T23:46:58;0.30;84.20
46752;DHT22;32497;48.936;9.270;2023-03-03T23:52:01;0.20;84.00
46752;DHT22;32497;48.936;9.270;2023-03-03T23:57:02;0.10;85.60
